sensor_id;sensor_type;location;lat;lon;timestamp;pressure;altitude;pressure_sealevel;temperature;humidity
25722;BME280;13578;53.450;15.496;2023-02-21T00:01:42;98866.63;;;7.17;100.00
25722;BME280;13578;53.450;15.496;2023-02-21T00:05:01;98868.06;;;7.21;100.00
25722;BME280;13578;53.450;15.496;2023-02-21T00:08:20;98851.25;;;7.15;100.00
25722;BME280;13578;53.450;15.496;2023-02-21T00:11:43;98865.06;;;7.14;100.00
25722;BME280;13578;53.450;15.496;2023-02-21T00:15:02;98862.19;;;7.15;100.00
25722;BME280;13578;53.450;15.496;2023-02-21T00:18:21;98849.66;;;7.03;100.00
25722;BME280;13578;53.450;15.496;2023-02-21T00:21:41;98847.19;;;7.00;100.00
25722;BME280;13578;53.450;15.496;2023-02-21T00:25:00;98839.56;;;6.94;100.00
25722;BME280;13578;53.450;15.496;2023-02-21T00:28:18;98838.97;;;6.90;100.00
25722;BME280;13578;53.450;15.496;2023-02-21T00:31:37;98843.41;;;6.81;100.00
25722;BME280;13578;53.450;15.496;2023-02-21T00:34:56;98828.59;;;6.74;100.00
25722;BME280;13578;53.450;15.496;2023-02-21T00:38:16;98825.69;;;6.66;100.00
25722;BME280;13578;53.450;15.496;2023-02-21T00:41:35;98829.97;;;6.59;100.00
25722;BME280;13578;53.450;15.496;2023-02-21T00:44:54;98821.06;;;6.57;100.00
25722;BME280;13578;53.450;15.496;2023-02-21T00:48:19;98814.56;;;6.48;100.00
25722;BME280;13578;53.450;15.496;2023-02-21T00:51:38;98830.34;;;6.44;100.00
25722;BME280;13578;53.450;15.496;2023-02-21T00:54:57;98830.53;;;6.53;100.00
25722;BME280;13578;53.450;15.496;2023-02-21T00:58:20;98824.16;;;6.42;100.00
25722;BME280;13578;53.450;15.496;2023-02-21T01:01:39;98812.31;;;6.32;100.00
25722;BME280;13578;53.450;15.496;2023-02-21T01:04:58;98818.50;;;6.34;100.00
25722;BME280;13578;53.450;15.496;2023-02-21T01:08:17;98826.69;;;6.34;100.00
25722;BME280;13578;53.450;15.496;2023-02-21T01:11:36;98810.63;;;6.31;100.00
25722;BME280;13578;53.450;15.496;2023-02-21T01:14:55;98807.00;;;6.30;100.00
25722;BME280;13578;53.450;15.496;2023-02-21T01:18:14;98819.78;;;6.30;100.00
25722;BME280;13578;53.450;15.496;2023-02-21T01:21:33;98814.16;;;6.22;100.00
25722;BME280;13578;53.450;15.496;2023-02-21T01:24:52;98816.47;;;6.26;100.00
25722;BME280;13578;53.450;15.496;2023-02-21T01:28:11;98826.97;;;6.31;100.00
25722;BME280;13578;53.450;15.496;2023-02-21T01:31:30;98821.03;;;6.26;100.00
25722;BME280;13578;53.450;15.496;2023-02-21T01:34:49;98832.41;;;6.31;100.00
25722;BME280;13578;53.450;15.496;2023-02-21T01:38:08;98823.16;;;6.22;100.00
25722;BME280;13578;53.450;15.496;2023-02-21T01:41:27;98833.38;;;6.20;100.00
25722;BME280;13578;53.450;15.496;2023-02-21T01:44:47;98843.53;;;6.18;100.00
25722;BME280;13578;53.450;15.496;2023-02-21T01:48:16;98838.28;;;6.26;100.00
25722;BME280;13578;53.450;15.496;2023-02-21T01:51:39;98833.22;;;6.22;100.00
25722;BME280;13578;53.450;15.496;2023-02-21T01:54:58;98845.84;;;6.23;100.00
25722;BME280;13578;53.450;15.496;2023-02-21T01:58:20;98837.94;;;6.19;100.00
25722;BME280;13578;53.450;15.496;2023-02-21T02:05:04;98837.19;;;6.17;100.00
25722;BME280;13578;53.450;15.496;2023-02-21T02:08:29;98838.06;;;6.18;100.00
25722;BME280;13578;53.450;15.496;2023-02-21T02:12:08;98844.66;;;6.15;100.00
25722;BME280;13578;53.450;15.496;2023-02-21T02:15:48;98840.00;;;6.06;100.00
25722;BME280;13578;53.450;15.496;2023-02-21T02:19:01;98831.56;;;6.09;100.00
25722;BME280;13578;53.450;15.496;2023-02-21T02:33:49;98832.97;;;6.03;100.00
25722;BME280;13578;53.450;15.496;2023-02-21T02:37:08;98831.09;;;6.04;100.00
25722;BME280;13578;53.450;15.496;2023-02-21T02:43:35;98857.47;;;6.03;100.00
25722;BME280;13578;53.450;15.496;2023-02-21T02:46:40;98864.66;;;6.04;100.00
25722;BME280;13578;53.450;15.496;2023-02-21T02:49:43;98879.88;;;6.07;100.00
25722;BME280;13578;53.450;15.496;2023-02-21T02:52:55;98880.84;;;6.06;100.00
25722;BME280;13578;53.450;15.496;2023-02-21T02:56:11;98867.78;;;6.00;100.00
25722;BME280;13578;53.450;15.496;2023-02-21T02:59:24;98869.50;;;6.01;100.00
25722;BME280;13578;53.450;15.496;2023-02-21T03:06:18;98885.31;;;5.96;100.00
25722;BME280;13578;53.450;15.496;2023-02-21T03:09:30;98881.50;;;5.98;100.00
25722;BME280;13578;53.450;15.496;2023-02-21T03:15:58;98887.81;;;5.99;100.00
25722;BME280;13578;53.450;15.496;2023-02-21T03:19:07;98884.31;;;5.97;100.00
25722;BME280;13578;53.450;15.496;2023-02-21T03:22:13;98875.44;;;5.95;100.00
25722;BME280;13578;53.450;15.496;2023-02-21T03:25:16;98866.94;;;5.88;100.00
25722;BME280;13578;53.450;15.496;2023-02-21T03:28:19;98873.72;;;5.94;100.00
25722;BME280;13578;53.450;15.496;2023-02-21T03:31:25;98874.50;;;5.84;100.00
25722;BME280;13578;53.450;15.496;2023-02-21T03:34:29;98886.97;;;5.87;100.00
25722;BME280;13578;53.450;15.496;2023-02-21T03:40:33;98892.81;;;5.82;100.00
25722;BME280;13578;53.450;15.496;2023-02-21T03:43:34;98875.34;;;5.85;100.00
25722;BME280;13578;53.450;15.496;2023-02-21T03:46:34;98872.91;;;5.82;100.00
25722;BME280;13578;53.450;15.496;2023-02-21T03:49:35;98872.16;;;5.80;100.00
25722;BME280;13578;53.450;15.496;2023-02-21T03:52:35;98868.84;;;5.76;100.00
25722;BME280;13578;53.450;15.496;2023-02-21T03:55:36;98860.72;;;5.65;100.00
25722;BME280;13578;53.450;15.496;2023-02-21T03:58:37;98885.16;;;5.76;100.00
25722;BME280;13578;53.450;15.496;2023-02-21T04:01:37;98864.16;;;5.67;100.00
25722;BME280;13578;53.450;15.496;2023-02-21T04:04:38;98879.38;;;5.69;100.00
25722;BME280;13578;53.450;15.496;2023-02-21T04:07:39;98860.22;;;5.60;100.00
25722;BME280;13578;53.450;15.496;2023-02-21T04:10:39;98868.78;;;5.55;100.00
25722;BME280;13578;53.450;15.496;2023-02-21T04:13:40;98878.06;;;5.52;100.00
25722;BME280;13578;53.450;15.496;2023-02-21T04:16:40;98874.97;;;5.57;100.00
25722;BME280;13578;53.450;15.496;2023-02-21T04:19:41;98872.84;;;5.61;100.00
25722;BME280;13578;53.450;15.496;2023-02-21T04:22:42;98873.31;;;5.66;100.00
25722;BME280;13578;53.450;15.496;2023-02-21T04:25:43;98875.06;;;5.67;100.00
25722;BME280;13578;53.450;15.496;2023-02-21T04:28:43;98873.47;;;5.64;100.00
25722;BME280;13578;53.450;15.496;2023-02-21T04:31:44;98877.44;;;5.60;100.00
25722;BME280;13578;53.450;15.496;2023-02-21T04:34:44;98874.34;;;5.65;100.00
25722;BME280;13578;53.450;15.496;2023-02-21T04:37:45;98886.94;;;5.66;100.00
25722;BME280;13578;53.450;15.496;2023-02-21T04:40:46;98883.34;;;5.65;100.00
25722;BME280;13578;53.450;15.496;2023-02-21T04:43:46;98888.41;;;5.70;100.00
25722;BME280;13578;53.450;15.496;2023-02-21T04:46:47;98886.53;;;5.70;100.00
25722;BME280;13578;53.450;15.496;2023-02-21T04:49:48;98887.81;;;5.66;100.00
25722;BME280;13578;53.450;15.496;2023-02-21T04:52:50;98896.13;;;5.65;100.00
25722;BME280;13578;53.450;15.496;2023-02-21T04:55:51;98891.53;;;5.65;100.00
25722;BME280;13578;53.450;15.496;2023-02-21T04:58:52;98906.72;;;5.68;100.00
25722;BME280;13578;53.450;15.496;2023-02-21T05:01:52;98908.84;;;5.64;100.00
25722;BME280;13578;53.450;15.496;2023-02-21T05:04:53;98899.56;;;5.67;100.00
25722;BME280;13578;53.450;15.496;2023-02-21T05:07:53;98906.13;;;5.64;100.00
25722;BME280;13578;53.450;15.496;2023-02-21T05:10:54;98913.53;;;5.62;100.00
25722;BME280;13578;53.450;15.496;2023-02-21T05:13:55;98902.03;;;5.59;100.00
25722;BME280;13578;53.450;15.496;2023-02-21T05:16:55;98903.19;;;5.56;100.00
25722;BME280;13578;53.450;15.496;2023-02-21T05:19:56;98907.50;;;5.59;100.00
25722;BME280;13578;53.450;15.496;2023-02-21T05:22:56;98911.34;;;5.56;100.00
25722;BME280;13578;53.450;15.496;2023-02-21T05:25:57;98908.50;;;5.57;100.00
25722;BME280;13578;53.450;15.496;2023-02-21T05:28:58;98912.69;;;5.62;100.00
25722;BME280;13578;53.450;15.496;2023-02-21T05:31:59;98926.53;;;5.59;100.00
25722;BME280;13578;53.450;15.496;2023-02-21T05:34:59;98939.91;;;5.62;100.00
25722;BME280;13578;53.450;15.496;2023-02-21T05:38:00;98915.94;;;5.55;100.00
25722;BME280;13578;53.450;15.496;2023-02-21T05:41:00;98922.59;;;5.63;100.00
25722;BME280;13578;53.450;15.496;2023-02-21T05:44:02;98930.00;;;5.61;100.00
25722;BME280;13578;53.450;15.496;2023-02-21T05:47:03;98937.31;;;5.60;100.00
25722;BME280;13578;53.450;15.496;2023-02-21T05:50:04;98945.13;;;5.65;100.00
25722;BME280;13578;53.450;15.496;2023-02-21T05:53:05;98947.84;;;5.65;100.00
25722;BME280;13578;53.450;15.496;2023-02-21T05:56:06;98952.41;;;5.64;100.00
25722;BME280;13578;53.450;15.496;2023-02-21T05:59:07;98952.41;;;5.64;100.00
25722;BME280;13578;53.450;15.496;2023-02-21T06:02:08;98959.09;;;5.60;100.00
25722;BME280;13578;53.450;15.496;2023-02-21T06:05:09;98958.59;;;5.66;100.00
25722;BME280;13578;53.450;15.496;2023-02-21T06:08:10;98960.56;;;5.64;100.00
25722;BME280;13578;53.450;15.496;2023-02-21T06:11:10;98971.59;;;5.63;100.00
25722;BME280;13578;53.450;15.496;2023-02-21T06:14:17;98975.16;;;5.63;100.00
25722;BME280;13578;53.450;15.496;2023-02-21T06:17:18;98980.13;;;5.58;100.00
25722;BME280;13578;53.450;15.496;2023-02-21T06:20:19;98971.59;;;5.63;100.00
25722;BME280;13578;53.450;15.496;2023-02-21T06:23:19;98967.66;;;5.55;100.00
25722;BME280;13578;53.450;15.496;2023-02-21T06:26:21;98988.91;;;5.62;100.00
25722;BME280;13578;53.450;15.496;2023-02-21T06:29:21;99007.59;;;5.55;100.00
25722;BME280;13578;53.450;15.496;2023-02-21T06:32:22;99017.63;;;5.54;100.00
25722;BME280;13578;53.450;15.496;2023-02-21T06:35:22;99015.38;;;5.60;100.00
25722;BME280;13578;53.450;15.496;2023-02-21T06:38:23;99020.09;;;5.57;100.00
25722;BME280;13578;53.450;15.496;2023-02-21T06:41:27;99017.88;;;5.51;100.00
25722;BME280;13578;53.450;15.496;2023-02-21T06:44:28;99017.00;;;5.51;100.00
25722;BME280;13578;53.450;15.496;2023-02-21T06:47:28;99014.06;;;5.54;100.00
25722;BME280;13578;53.450;15.496;2023-02-21T06:50:29;99003.53;;;5.49;100.00
25722;BME280;13578;53.450;15.496;2023-02-21T06:53:29;99011.94;;;5.46;100.00
25722;BME280;13578;53.450;15.496;2023-02-21T06:56:30;99026.28;;;5.48;100.00
25722;BME280;13578;53.450;15.496;2023-02-21T06:59:31;99048.81;;;5.50;100.00
25722;BME280;13578;53.450;15.496;2023-02-21T07:02:31;99036.44;;;5.46;100.00
25722;BME280;13578;53.450;15.496;2023-02-21T07:05:32;99048.69;;;5.52;100.00
25722;BME280;13578;53.450;15.496;2023-02-21T07:08:34;99043.75;;;5.46;100.00
25722;BME280;13578;53.450;15.496;2023-02-21T07:11:35;99055.25;;;5.49;100.00
25722;BME280;13578;53.450;15.496;2023-02-21T07:14:36;99062.28;;;5.52;100.00
25722;BME280;13578;53.450;15.496;2023-02-21T07:17:36;99062.53;;;5.49;100.00
25722;BME280;13578;53.450;15.496;2023-02-21T07:20:37;99067.34;;;5.45;100.00
25722;BME280;13578;53.450;15.496;2023-02-21T07:23:38;99076.03;;;5.50;100.00
25722;BME280;13578;53.450;15.496;2023-02-21T07:26:38;99076.25;;;5.47;100.00
25722;BME280;13578;53.450;15.496;2023-02-21T07:29:39;99086.78;;;5.52;100.00
25722;BME280;13578;53.450;15.496;2023-02-21T07:32:39;99074.56;;;5.57;100.00
25722;BME280;13578;53.450;15.496;2023-02-21T07:35:40;99086.78;;;5.52;100.00
25722;BME280;13578;53.450;15.496;2023-02-21T07:38:40;99100.25;;;5.53;100.00
25722;BME280;13578;53.450;15.496;2023-02-21T07:41:41;99092.84;;;5.55;100.00
25722;BME280;13578;53.450;15.496;2023-02-21T07:44:42;99094.59;;;5.56;100.00
25722;BME280;13578;53.450;15.496;2023-02-21T07:47:44;99101.88;;;5.56;100.00
25722;BME280;13578;53.450;15.496;2023-02-21T07:50:45;99096.31;;;5.57;100.00
25722;BME280;13578;53.450;15.496;2023-02-21T07:53:45;99098.03;;;5.59;100.00
25722;BME280;13578;53.450;15.496;2023-02-21T07:56:47;99115.59;;;5.66;100.00
25722;BME280;13578;53.450;15.496;2023-02-21T07:59:49;99113.75;;;5.66;100.00
25722;BME280;13578;53.450;15.496;2023-02-21T08:02:50;99114.38;;;5.70;100.00
25722;BME280;13578;53.450;15.496;2023-02-21T08:05:51;99116.72;;;5.63;100.00
25722;BME280;13578;53.450;15.496;2023-02-21T08:08:51;99121.31;;;5.63;100.00
25722;BME280;13578;53.450;15.496;2023-02-21T08:11:52;99139.38;;;5.64;100.00
25722;BME280;13578;53.450;15.496;2023-02-21T08:14:53;99123.75;;;5.66;100.00
25722;BME280;13578;53.450;15.496;2023-02-21T08:17:53;99139.13;;;5.67;100.00
25722;BME280;13578;53.450;15.496;2023-02-21T08:20:55;99136.41;;;5.67;100.00
25722;BME280;13578;53.450;15.496;2023-02-21T08:23:58;99140.25;;;5.76;100.00
25722;BME280;13578;53.450;15.496;2023-02-21T08:26:59;99135.78;;;5.75;100.00
25722;BME280;13578;53.450;15.496;2023-02-21T08:29:59;99140.13;;;5.77;100.00
25722;BME280;13578;53.450;15.496;2023-02-21T08:33:01;99162.66;;;5.79;100.00
25722;BME280;13578;53.450;15.496;2023-02-21T08:36:01;99144.59;;;5.78;100.00
25722;BME280;13578;53.450;15.496;2023-02-21T08:39:02;99146.41;;;5.78;100.00
25722;BME280;13578;53.450;15.496;2023-02-21T08:42:03;99159.81;;;5.81;100.00
25722;BME280;13578;53.450;15.496;2023-02-21T08:45:04;99170.44;;;5.84;100.00
25722;BME280;13578;53.450;15.496;2023-02-21T08:48:05;99161.63;;;5.80;100.00
25722;BME280;13578;53.450;15.496;2023-02-21T08:51:05;99163.38;;;5.81;100.00
25722;BME280;13578;53.450;15.496;2023-02-21T08:54:07;99172.91;;;5.87;100.00
25722;BME280;13578;53.450;15.496;2023-02-21T08:57:08;99178.00;;;5.92;100.00
25722;BME280;13578;53.450;15.496;2023-02-21T09:00:10;99165.50;;;5.89;100.00
25722;BME280;13578;53.450;15.496;2023-02-21T09:03:12;99162.63;;;5.91;100.00
25722;BME280;13578;53.450;15.496;2023-02-21T09:06:13;99186.91;;;5.94;100.00
25722;BME280;13578;53.450;15.496;2023-02-21T09:09:14;99190.38;;;5.96;100.00
25722;BME280;13578;53.450;15.496;2023-02-21T09:12:15;99206.97;;;5.93;100.00
25722;BME280;13578;53.450;15.496;2023-02-21T09:15:16;99175.88;;;5.95;100.00
25722;BME280;13578;53.450;15.496;2023-02-21T09:18:17;99187.19;;;6.02;100.00
25722;BME280;13578;53.450;15.496;2023-02-21T09:21:17;99198.22;;;6.12;100.00
25722;BME280;13578;53.450;15.496;2023-02-21T09:24:18;99209.00;;;6.02;100.00
25722;BME280;13578;53.450;15.496;2023-02-21T09:27:24;99195.59;;;5.99;100.00
25722;BME280;13578;53.450;15.496;2023-02-21T09:30:36;99192.97;;;5.97;100.00
25722;BME280;13578;53.450;15.496;2023-02-21T09:33:37;99201.19;;;6.09;100.00
25722;BME280;13578;53.450;15.496;2023-02-21T09:36:40;99206.00;;;6.05;100.00
25722;BME280;13578;53.450;15.496;2023-02-21T09:39:40;99197.84;;;6.05;100.00
25722;BME280;13578;53.450;15.496;2023-02-21T09:42:41;99221.84;;;6.00;100.00
25722;BME280;13578;53.450;15.496;2023-02-21T09:45:43;99211.16;;;5.97;100.00
25722;BME280;13578;53.450;15.496;2023-02-21T09:48:44;99214.88;;;5.96;100.00
25722;BME280;13578;53.450;15.496;2023-02-21T09:51:45;99217.41;;;5.99;100.00
25722;BME280;13578;53.450;15.496;2023-02-21T09:54:53;99215.91;;;5.95;100.00
25722;BME280;13578;53.450;15.496;2023-02-21T09:57:56;99235.81;;;5.95;100.00
25722;BME280;13578;53.450;15.496;2023-02-21T10:01:00;99225.28;;;5.91;100.00
25722;BME280;13578;53.450;15.496;2023-02-21T10:14:31;99234.06;;;5.94;100.00
25722;BME280;13578;53.450;15.496;2023-02-21T10:17:47;99231.44;;;5.81;100.00
25722;BME280;13578;53.450;15.496;2023-02-21T10:20:53;99236.66;;;5.96;100.00
25722;BME280;13578;53.450;15.496;2023-02-21T10:23:57;99242.88;;;5.98;100.00
25722;BME280;13578;53.450;15.496;2023-02-21T10:27:07;99253.13;;;5.94;100.00
25722;BME280;13578;53.450;15.496;2023-02-21T10:30:09;99248.56;;;5.95;100.00
25722;BME280;13578;53.450;15.496;2023-02-21T10:33:15;99247.91;;;5.91;100.00
25722;BME280;13578;53.450;15.496;2023-02-21T10:36:18;99252.16;;;5.95;100.00
25722;BME280;13578;53.450;15.496;2023-02-21T10:39:33;99237.91;;;5.92;100.00
25722;BME280;13578;53.450;15.496;2023-02-21T10:42:45;99251.69;;;6.01;100.00
25722;BME280;13578;53.450;15.496;2023-02-21T10:49:23;99255.41;;;6.00;100.00
25722;BME280;13578;53.450;15.496;2023-02-21T10:52:28;99263.69;;;5.99;100.00
25722;BME280;13578;53.450;15.496;2023-02-21T10:55:29;99268.25;;;5.98;100.00
25722;BME280;13578;53.450;15.496;2023-02-21T10:58:29;99269.91;;;6.01;100.00
25722;BME280;13578;53.450;15.496;2023-02-21T11:04:34;99283.28;;;6.15;100.00
25722;BME280;13578;53.450;15.496;2023-02-21T11:07:37;99278.81;;;6.14;100.00
25722;BME280;13578;53.450;15.496;2023-02-21T11:10:41;99295.94;;;6.16;100.00
25722;BME280;13578;53.450;15.496;2023-02-21T11:13:42;99282.19;;;6.18;100.00
25722;BME280;13578;53.450;15.496;2023-02-21T11:16:43;99288.97;;;6.12;100.00
25722;BME280;13578;53.450;15.496;2023-02-21T11:22:48;99285.25;;;6.02;100.00
25722;BME280;13578;53.450;15.496;2023-02-21T11:25:52;99284.16;;;6.04;100.00
25722;BME280;13578;53.450;15.496;2023-02-21T11:29:09;99288.97;;;6.12;100.00
25722;BME280;13578;53.450;15.496;2023-02-21T11:32:19;99293.31;;;6.15;100.00
25722;BME280;13578;53.450;15.496;2023-02-21T11:35:29;99298.38;;;6.19;100.00
25722;BME280;13578;53.450;15.496;2023-02-21T11:42:39;99305.34;;;6.24;100.00
25722;BME280;13578;53.450;15.496;2023-02-21T11:45:54;99302.97;;;6.19;100.00
25722;BME280;13578;53.450;15.496;2023-02-21T11:52:28;99313.97;;;6.06;100.00
25722;BME280;13578;53.450;15.496;2023-02-21T11:55:30;99298.59;;;5.94;100.00
25722;BME280;13578;53.450;15.496;2023-02-21T12:09:06;99315.94;;;6.04;100.00
25722;BME280;13578;53.450;15.496;2023-02-21T12:15:22;99329.34;;;6.18;100.00
25722;BME280;13578;53.450;15.496;2023-02-21T12:32:43;99329.38;;;6.41;100.00
25722;BME280;13578;53.450;15.496;2023-02-21T12:42:43;99340.28;;;6.41;100.00
25722;BME280;13578;53.450;15.496;2023-02-21T12:46:05;99351.66;;;6.46;100.00
25722;BME280;13578;53.450;15.496;2023-02-21T12:49:25;99353.53;;;6.46;100.00
25722;BME280;13578;53.450;15.496;2023-02-21T12:52:39;99354.78;;;6.42;100.00
25722;BME280;13578;53.450;15.496;2023-02-21T12:56:05;99351.44;;;6.38;100.00
25722;BME280;13578;53.450;15.496;2023-02-21T13:00:15;99357.38;;;6.43;100.00
25722;BME280;13578;53.450;15.496;2023-02-21T13:03:03;99369.03;;;6.45;100.00
25722;BME280;13578;53.450;15.496;2023-02-21T13:06:33;99359.00;;;6.46;100.00
25722;BME280;13578;53.450;15.496;2023-02-21T13:10:22;99366.53;;;6.54;100.00
25722;BME280;13578;53.450;15.496;2023-02-21T13:13:29;99374.84;;;6.52;100.00
25722;BME280;13578;53.450;15.496;2023-02-21T13:16:31;99367.03;;;6.47;100.00
25722;BME280;13578;53.450;15.496;2023-02-21T13:20:14;99381.19;;;6.53;100.00
25722;BME280;13578;53.450;15.496;2023-02-21T13:23:37;99382.03;;;6.53;100.00
25722;BME280;13578;53.450;15.496;2023-02-21T13:30:09;99374.72;;;6.54;100.00
25722;BME280;13578;53.450;15.496;2023-02-21T13:33:29;99383.88;;;6.41;100.00
25722;BME280;13578;53.450;15.496;2023-02-21T13:39:44;99385.84;;;6.39;100.00
25722;BME280;13578;53.450;15.496;2023-02-21T13:42:45;99385.50;;;6.44;100.00
25722;BME280;13578;53.450;15.496;2023-02-21T13:45:46;99393.31;;;6.48;100.00
25722;BME280;13578;53.450;15.496;2023-02-21T13:52:34;99403.25;;;6.61;100.00
25722;BME280;13578;53.450;15.496;2023-02-21T13:55:36;99392.09;;;6.53;100.00
25722;BME280;13578;53.450;15.496;2023-02-21T13:58:38;99397.16;;;6.46;100.00
25722;BME280;13578;53.450;15.496;2023-02-21T14:01:41;99397.16;;;6.46;100.00
25722;BME280;13578;53.450;15.496;2023-02-21T14:08:02;99413.16;;;6.50;100.00
25722;BME280;13578;53.450;15.496;2023-02-21T14:14:31;99419.59;;;6.49;100.00
25722;BME280;13578;53.450;15.496;2023-02-21T14:17:35;99414.38;;;6.46;100.00
25722;BME280;13578;53.450;15.496;2023-02-21T14:20:36;99430.09;;;6.43;100.00
25722;BME280;13578;53.450;15.496;2023-02-21T14:23:50;99413.28;;;6.49;100.00
25722;BME280;13578;53.450;15.496;2023-02-21T14:33:23;99439.03;;;6.45;100.00
25722;BME280;13578;53.450;15.496;2023-02-21T14:36:27;99432.47;;;6.47;100.00
25722;BME280;13578;53.450;15.496;2023-02-21T14:39:33;99433.44;;;6.46;100.00
25722;BME280;13578;53.450;15.496;2023-02-21T14:52:46;99443.84;;;6.41;100.00
25722;BME280;13578;53.450;15.496;2023-02-21T14:59:14;99455.66;;;6.42;100.00
25722;BME280;13578;53.450;15.496;2023-02-21T15:05:38;99445.09;;;6.37;100.00
25722;BME280;13578;53.450;15.496;2023-02-21T15:08:50;99467.63;;;6.39;100.00
25722;BME280;13578;53.450;15.496;2023-02-21T15:11:51;99465.03;;;6.38;100.00
25722;BME280;13578;53.450;15.496;2023-02-21T15:14:52;99445.81;;;6.39;100.00
25722;BME280;13578;53.450;15.496;2023-02-21T15:24:13;99471.81;;;6.32;100.00
25722;BME280;13578;53.450;15.496;2023-02-21T15:27:14;99469.22;;;6.30;100.00
25722;BME280;13578;53.450;15.496;2023-02-21T15:30:27;99470.84;;;6.33;100.00
25722;BME280;13578;53.450;15.496;2023-02-21T15:33:34;99466.00;;;6.25;100.00
25722;BME280;13578;53.450;15.496;2023-02-21T15:36:41;99459.91;;;6.22;100.00
25722;BME280;13578;53.450;15.496;2023-02-21T15:39:54;99469.84;;;6.23;100.00
25722;BME280;13578;53.450;15.496;2023-02-21T15:43:00;99468.09;;;6.22;100.00
25722;BME280;13578;53.450;15.496;2023-02-21T15:46:03;99474.53;;;6.20;100.00
25722;BME280;13578;53.450;15.496;2023-02-21T15:49:08;99483.56;;;6.21;100.00
25722;BME280;13578;53.450;15.496;2023-02-21T15:52:39;99499.06;;;6.20;100.00
25722;BME280;13578;53.450;15.496;2023-02-21T15:55:41;99478.22;;;6.08;100.00
25722;BME280;13578;53.450;15.496;2023-02-21T15:59:06;99493.09;;;6.15;100.00
25722;BME280;13578;53.450;15.496;2023-02-21T16:05:26;99500.97;;;6.07;100.00
25722;BME280;13578;53.450;15.496;2023-02-21T16:08:27;99509.03;;;6.09;100.00
25722;BME280;13578;53.450;15.496;2023-02-21T16:11:43;99516.56;;;6.05;100.00
25722;BME280;13578;53.450;15.496;2023-02-21T16:14:54;99519.41;;;6.03;100.00
25722;BME280;13578;53.450;15.496;2023-02-21T16:18:01;99513.06;;;6.03;100.00
25722;BME280;13578;53.450;15.496;2023-02-21T16:21:06;99508.53;;;5.91;100.00
25722;BME280;13578;53.450;15.496;2023-02-21T16:24:27;99524.09;;;6.01;100.00
25722;BME280;13578;53.450;15.496;2023-02-21T16:27:28;99528.69;;;6.01;100.00
25722;BME280;13578;53.450;15.496;2023-02-21T16:30:30;99527.94;;;5.99;100.00
25722;BME280;13578;53.450;15.496;2023-02-21T16:33:32;99531.59;;;5.98;100.00
25722;BME280;13578;53.450;15.496;2023-02-21T16:36:33;99542.31;;;6.01;100.00
25722;BME280;13578;53.450;15.496;2023-02-21T16:39:34;99546.03;;;6.00;100.00
25722;BME280;13578;53.450;15.496;2023-02-21T16:42:35;99544.91;;;6.02;100.00
25722;BME280;13578;53.450;15.496;2023-02-21T16:45:36;99537.31;;;5.95;100.00
25722;BME280;13578;53.450;15.496;2023-02-21T16:48:36;99549.06;;;5.95;100.00
25722;BME280;13578;53.450;15.496;2023-02-21T16:51:37;99551.59;;;5.85;100.00
25722;BME280;13578;53.450;15.496;2023-02-21T16:54:42;99558.03;;;5.84;100.00
25722;BME280;13578;53.450;15.496;2023-02-21T16:57:51;99567.28;;;5.82;100.00
25722;BME280;13578;53.450;15.496;2023-02-21T17:00:55;99567.19;;;5.83;100.00
25722;BME280;13578;53.450;15.496;2023-02-21T17:03:56;99561.59;;;5.85;100.00
25722;BME280;13578;53.450;15.496;2023-02-21T17:07:02;99565.44;;;5.82;100.00
25722;BME280;13578;53.450;15.496;2023-02-21T17:10:04;99569.03;;;5.83;100.00
25722;BME280;13578;53.450;15.496;2023-02-21T17:13:04;99568.72;;;5.75;100.00
25722;BME280;13578;53.450;15.496;2023-02-21T17:16:05;99575.81;;;5.64;100.00
25722;BME280;13578;53.450;15.496;2023-02-21T17:19:06;99579.66;;;5.62;100.00
25722;BME280;13578;53.450;15.496;2023-02-21T17:22:11;99573.44;;;5.60;100.00
25722;BME280;13578;53.450;15.496;2023-02-21T17:25:12;99574.34;;;5.47;100.00
25722;BME280;13578;53.450;15.496;2023-02-21T17:28:13;99586.97;;;5.48;100.00
25722;BME280;13578;53.450;15.496;2023-02-21T17:31:15;99587.41;;;5.42;100.00
25722;BME280;13578;53.450;15.496;2023-02-21T17:34:17;99580.22;;;5.41;100.00
25722;BME280;13578;53.450;15.496;2023-02-21T17:37:18;99592.53;;;5.34;100.00
25722;BME280;13578;53.450;15.496;2023-02-21T17:40:20;99586.78;;;5.25;100.00
25722;BME280;13578;53.450;15.496;2023-02-21T17:43:20;99590.69;;;5.21;100.00
25722;BME280;13578;53.450;15.496;2023-02-21T17:46:21;99585.59;;;5.17;100.00
25722;BME280;13578;53.450;15.496;2023-02-21T17:49:25;99589.06;;;5.06;100.00
25722;BME280;13578;53.450;15.496;2023-02-21T17:52:27;99588.75;;;4.98;100.00
25722;BME280;13578;53.450;15.496;2023-02-21T17:55:28;99590.69;;;4.96;100.00
25722;BME280;13578;53.450;15.496;2023-02-21T17:58:49;99607.97;;;4.95;100.00
25722;BME280;13578;53.450;15.496;2023-02-21T18:01:53;99598.47;;;4.74;100.00
25722;BME280;13578;53.450;15.496;2023-02-21T18:04:54;99601.13;;;4.76;100.00
25722;BME280;13578;53.450;15.496;2023-02-21T18:07:55;99607.94;;;4.69;100.00
25722;BME280;13578;53.450;15.496;2023-02-21T18:10:55;99605.66;;;4.63;100.00
25722;BME280;13578;53.450;15.496;2023-02-21T18:13:56;99612.81;;;4.64;100.00
25722;BME280;13578;53.450;15.496;2023-02-21T18:16:57;99609.53;;;4.58;100.00
25722;BME280;13578;53.450;15.496;2023-02-21T18:19:57;99618.00;;;4.54;100.00
25722;BME280;13578;53.450;15.496;2023-02-21T18:22:58;99604.38;;;4.41;100.00
25722;BME280;13578;53.450;15.496;2023-02-21T18:26:00;99618.38;;;4.35;100.00
25722;BME280;13578;53.450;15.496;2023-02-21T18:29:01;99624.03;;;4.32;100.00
25722;BME280;13578;53.450;15.496;2023-02-21T18:32:02;99620.13;;;4.36;100.00
25722;BME280;13578;53.450;15.496;2023-02-21T18:35:03;99615.53;;;4.23;100.00